Weather observations for the past three days for
Harlan
Imperial (Metric)
Date Time (edt) Wind (mph) Vis. (mi.) Weather Sky Cond. Temperature (ºF) Relative Humidity Wind Chill (°F) Heat Index (°F) Pressure Precipitation (in)
Air Dwpt 6 hour altimeter (in) sea level (mb) 1 hr 3 hr 6 hr
Max. Min.
04 09:55 Calm 10.00 Partly Cloudy SCT004 76.6 71.6 84% 78 30.13 0.0
04 09:35 Calm 5.00 Overcast OVC002 74.3 71.6 91% 30.13 0.0
04 09:15 Calm 5.00 Overcast OVC002 72 71.2 98% 30.13 0.0
04 08:55 Calm 3.00 Overcast OVC002 71.2 71.1 99% 30.13 0.0
04 08:35 Calm 1.50 Overcast OVC002 71.1 71.1 100% 30.13 0.0
04 08:15 Calm 0.50 Overcast OVC002 70.7 70.7 100% 30.13 0.0
04 07:55 Calm 0.50 Overcast OVC002 70.7 70.7 72.5 70.7 100% 30.11 0.0
04 07:35 Calm 0.75 Overcast OVC002 70.7 70.7 100% 30.11 0.0
04 07:15 Calm 3.00 Overcast OVC002 70.7 70.7 100% 30.11 0.0
04 06:55 Calm 3.00 Overcast OVC002 70.9 70.9 100% 30.1 0.0
04 06:35 Calm 1.75 Overcast OVC002 70.7 70.7 100% 30.1 0.0
04 06:15 Calm 1.00 Overcast OVC002 70.7 70.7 100% 30.1 0.0
04 05:55 Calm 1.00 Overcast OVC002 71.1 71.1 100% 30.09 0.0
04 05:35 Calm 0.75 Overcast OVC002 71.1 71.1 100% 30.09 0.0
04 05:15 Calm 1.50 Overcast OVC002 71.2 71.2 100% 30.08 0.0
04 04:55 Calm 2.00 Overcast OVC002 71.2 71.2 100% 30.08 0.0
04 04:35 Calm 0.75 Overcast OVC002 71.2 71.2 100% 30.08 0.0
04 04:15 Calm 1.50 Overcast OVC002 71.4 71.4 100% 30.08 0.0
04 03:55 Calm 1.25 Overcast OVC002 71.2 71.2 100% 30.08 0.0
04 03:35 Calm 5.00 Overcast OVC002 71.6 71.6 100% 30.08 0.0
04 03:15 Calm 5.00 Overcast OVC002 71.8 71.8 100% 30.08 0.0
04 02:55 Calm 5.00 Overcast OVC002 71.8 71.8 100% 30.09 0.0
04 02:35 Calm 4.00 Mostly Cloudy BKN002 71.8 71.8 100% 30.09 0.0
04 02:15 Calm 5.00 Fair CLR 72 72 100% 30.1 0.0
04 01:55 Calm 5.00 Partly Cloudy SCT003 72.5 72.5 81.5 72.5 100% 30.1 0.0
04 01:35 Calm 7.00 Fair CLR 72.7 72.7 100% 30.11 0.0
04 01:15 Calm 7.00 Fair CLR 73 73 100% 30.11 0.0
04 00:55 Calm 7.00 Fair CLR 73.4 73.4 100% 30.12 0.0
04 00:35 Calm 7.00 Fair CLR 73.6 73.4 99% 30.12 0.0
04 00:15 Calm 7.00 Fair CLR 73.8 73.8 100% 30.12 0.0
03 23:55 Calm 5.00 Fair CLR 73.9 73.6 99% 30.12 0.0
03 23:35 Calm 7.00 Fair CLR 74.5 74.3 99% 30.12 0.0
03 23:15 Calm 10.00 Fair CLR 74.7 74.3 99% 30.12 0.0
03 22:55 Calm 10.00 Fair CLR 75.4 74.3 96% 74 30.12 0.0
03 22:35 Calm 10.00 Fair CLR 75.6 74.5 96% 74 30.12 0.0
03 22:15 Calm 7.00 Fair CLR 76.1 74.5 95% 76 30.12 0.0
03 21:55 Calm 10.00 Fair CLR 76.8 74.3 92% 78 30.11 0.0
03 21:35 Calm 10.00 Fair CLR 77.2 74.5 91% 79 30.11 0.0
03 21:15 Calm 10.00 Fair CLR 78.1 74.3 88% 81 30.1 0.0
03 20:55 Calm 10.00 Fair CLR 79.5 74.3 84% 84 30.1 0.0
03 20:35 Calm 10.00 Fair CLR 79.3 74.1 84% 83 30.08 0.0
03 20:15 Calm 10.00 Fair CLR 81 73.8 79% 86 30.07 0.0
03 19:55 Calm 10.00 Fair CLR 82 73.6 94.5 82 76% 88 30.07 0.0
03 19:35 Calm 10.00 Fair CLR 84 73.9 72% 91 30.07 0.0
03 19:15 Calm 10.00 Fair CLR 86.4 73.6 66% 94 30.06 0.0
03 18:55 Calm 10.00 Fair CLR 89.2 74.1 61% 98 30.06 0.0
03 18:35 Calm 10.00 Fair CLR 90.3 73.2 57% 99 30.06 0.0
03 18:15 Calm 7.00 Fair CLR 90.9 72.1 54% 98 30.05 0.0
03 17:55 Calm 10.00 Fair CLR 91.4 69.4 49% 97 30.05 0.0
03 17:35 SE 3 10.00 Fair CLR 91 70.9 52% 97 30.06 0.0
03 17:15 S 3 10.00 Partly Cloudy SCT065 91.9 70.7 50% 98 30.06 0.0
03 16:55 W 3 10.00 Partly Cloudy SCT065 94.1 69.1 44% 100 30.07 0.0
03 16:35 Calm 10.00 Fair CLR 93.9 69.3 45% 99 30.08 0.0
03 16:15 Calm 10.00 Fair CLR 91.6 69.4 48% 97 30.08 0.0
03 15:55 Calm 10.00 Fair CLR 92.5 67.3 44% 96 30.08 0.0
03 15:35 N 3 10.00 Partly Cloudy SCT095 SCT120 92.5 69.1 46% 98 30.09 0.0
03 15:15 N 3 10.00 Mostly Cloudy SCT060 SCT070 BKN100 89.6 72 56% 97 30.1 0.0
03 14:55 N 3 10.00 Overcast BKN050 OVC070 93.2 70.2 47% 99 30.1 0.0
03 14:35 N 5 10.00 Overcast BKN050 OVC070 94.3 68.9 44% 100 30.1 0.0
03 14:15 W 3 10.00 Overcast OVC060 93.6 70.3 47% 100 30.11 0.0
03 13:55 S 3 10.00 Mostly Cloudy BKN060 BKN065 93 68.7 93.9 69.8 45% 98 30.12 0.0
03 13:35 W 3 10.00 Partly Cloudy SCT060 93.2 70.5 48% 100 30.12 0.0
03 13:15 Calm 10.00 Fair CLR 91.2 71.1 52% 98 30.13 0.0
03 12:55 SE 3 10.00 Fair CLR 91 70.5 51% 97 30.13 0.0
03 12:35 Calm 10.00 Fair CLR 90 70.5 53% 96 30.14 0.0
03 12:15 SW 3 7.00 Fair CLR 88.3 72.9 60% 96 30.15 0.0
03 11:55 Calm 7.00 Fair CLR 87.8 73.6 63% 96 30.15 0.0
03 11:35 Calm 7.00 Fair CLR 84.4 72 66% 90 30.15 0.0
03 11:15 Calm 7.00 Fair CLR 82.8 72 70% 88 30.16 0.0
03 10:55 Calm 10.00 Fair CLR 80.8 72 75% 85 30.16 0.0
03 10:35 Calm 7.00 Fair CLR 79.2 71.6 78% 82 30.16 0.0
03 10:15 Calm 5.00 Fair CLR 77.7 71.1 80% 80 30.16 0.0
03 09:55 Calm 7.00 Partly Cloudy SCT004 76.6 71.4 84% 78 30.16 0.0
03 09:35 Calm 7.00 Mostly Cloudy BKN002 72.9 70.9 94% 30.16 0.0
03 09:15 Calm 4.00 Overcast OVC002 71.2 70.3 97% 30.17 0.0
03 08:55 Calm 2.00 Overcast OVC002 70.9 70.7 99% 30.17 0.0
03 08:35 Calm 0.75 Overcast OVC002 70 70 100% 30.17 0.0
03 08:15 Calm 0.50 Overcast OVC002 70 70 100% 30.17 0.0
03 07:55 Calm 1.00 Overcast OVC002 69.8 69.8 71.6 69.6 100% 30.17 0.0
03 07:35 Calm 0.75 Overcast OVC002 69.8 69.8 100% 30.16 0.0
03 07:15 Calm 1.00 Overcast OVC002 69.8 69.8 100% 30.15 0.0
03 06:55 Calm 0.50 Overcast OVC002 69.8 69.8 100% 30.14 0.0
03 06:35 Calm 1.75 Overcast OVC002 69.8 69.8 100% 30.13 0.0
03 06:15 Calm 1.00 Overcast OVC002 70 70 100% 30.13 0.0
03 05:55 Calm 1.50 Overcast OVC002 70.3 70.3 100% 30.14 0.0
03 05:35 Calm 2.50 Overcast OVC002 70.5 70.5 100% 30.13 0.0
03 05:15 Calm 3.00 Overcast OVC002 70.7 70.7 100% 30.14 0.0
03 04:55 Calm 2.50 Overcast OVC002 70.7 70.7 100% 30.14 0.0
03 04:35 Calm 3.00 Overcast OVC002 70.7 70.7 100% 30.13 0.0
03 04:15 Calm 2.50 Overcast OVC002 70.9 70.9 100% 30.14 0.0
03 03:55 Calm 4.00 Overcast OVC002 71.1 71.1 100% 30.13 0.0
03 03:35 Calm 4.00 Overcast OVC002 71.1 71.1 100% 30.13 0.0
03 03:15 Calm 4.00 Overcast OVC002 71.1 71.1 100% 30.13 0.0
03 02:55 Calm 4.00 Overcast OVC002 71.2 71.2 100% 30.13 0.0
03 02:35 Calm 4.00 Mostly Cloudy BKN002 71.6 71.6 100% 30.13 0.0
03 02:15 Calm 5.00 Partly Cloudy SCT002 71.6 71.6 100% 30.13 0.0
03 01:55 Calm 5.00 Partly Cloudy SCT002 71.6 71.6 81.3 71.6 100% 30.13 0.0
03 01:35 Calm 5.00 Partly Cloudy SCT002 71.8 71.8 100% 30.13 0.0
03 01:15 Calm 5.00 Fair CLR 72.1 72.1 100% 30.13 0.0
03 00:55 Calm 5.00 Fair CLR 72.5 72.5 100% 30.14 0.0
03 00:35 Calm 5.00 Fair CLR 72.7 72.7 100% 30.14 0.0
03 00:15 Calm 5.00 Fair CLR 72.7 72.7 100% 30.14 0.0
02 23:55 Calm 7.00 Fair CLR 73 73 100% 30.14 0.0
02 23:35 Calm 7.00 Fair CLR 73.4 73.4 100% 30.14 0.0
02 23:15 Calm 5.00 Fair CLR 73.6 73.4 99% 30.14 0.0
02 22:55 Calm 5.00 Fair CLR 73.9 73.6 99% 30.14 0.0
02 22:35 Calm 7.00 Fair CLR 74.3 73.8 98% 30.14 0.0
02 22:15 Calm 7.00 Fair CLR 75.2 74.1 96% 73 30.14 0.0
02 21:55 Calm 7.00 Fair CLR 75.2 73.9 96% 73 30.14 0.0
02 21:35 Calm 7.00 Fair CLR 75.6 73.9 95% 74 30.13 0.0
02 21:15 Calm 7.00 Fair CLR 76.6 73.9 91% 77 30.13 0.0
02 20:55 Calm 10.00 Fair CLR 77.2 73.9 90% 79 30.12 0.0
02 20:35 Calm 7.00 Fair CLR 78.3 73.6 86% 81 30.12 0.0
02 20:15 Calm 7.00 Fair CLR 80.2 72.7 78% 84 30.12 0.0
02 19:55 Calm 10.00 Fair CLR 81.1 73.8 93.9 81.1 78% 86 30.11 0.0
02 19:35 Calm 10.00 Fair CLR 84 73 70% 90 30.11 0.0
02 19:15 Calm 7.00 Fair CLR 86.4 74.1 67% 95 30.11 0.0
02 18:55 Calm 10.00 Fair CLR 89.2 72.9 59% 97 30.11 0.0
02 18:35 Calm 7.00 Fair CLR 91.4 71.2 52% 98 30.11 0.0
02 18:15 Calm 10.00 Fair CLR 92.3 68.9 46% 97 30.11 0.0
02 17:55 W 3 10.00 Fair CLR 92.5 68.9 46% 97 30.12 0.0
02 17:35 W 5 10.00 Partly Cloudy SCT050 92.3 69.3 47% 98 30.11 0.0
02 17:15 SW 3 10.00 Partly Cloudy SCT050 92.3 69.3 47% 98 30.12 0.0
02 16:55 Calm 7.00 Mostly Cloudy BKN050 91.6 70.3 50% 98 30.12 0.0
02 16:35 Calm 10.00 Partly Cloudy SCT060 SCT070 89.2 70 53% 95 30.12 0.0
02 16:15 Calm 10.00 Mostly Cloudy SCT050 BKN070 90.1 72 55% 97 30.13 0.0
02 15:55 Calm 7.00 Partly Cloudy SCT049 SCT060 89.4 69.8 52% 95 30.13 0.0
02 15:35 NE 3 7.00 Mostly Cloudy SCT049 BKN060 BKN090 91.6 69.8 49% 97 30.14 0.0
02 15:15 Calm 7.00 Partly Cloudy SCT049 SCT090 93.2 71.2 49% 100 30.14 0.0
02 14:55 S 3 10.00 Partly Cloudy SCT049 91.2 70.2 50% 97 30.15 0.0
02 14:35 SW 3 7.00 Fair CLR 91.2 69.3 49% 96 30.16 0.0
02 14:15 W 3 7.00 Partly Cloudy SCT060 SCT070 91 69.4 49% 96 30.16 0.0
02 13:55 Calm 7.00 Mostly Cloudy SCT046 BKN060 BKN070 88.3 68.9 90 68.2 53% 93 30.17 0.0
02 13:35 Calm 10.00 Mostly Cloudy SCT049 BKN060 BKN070 88.5 69.4 53% 93 30.18 0.0
02 13:15 Calm 10.00 Mostly Cloudy BKN060 BKN070 BKN080 88.2 68.9 53% 92 30.18 0.0
02 12:55 SW 3 10.00 Partly Cloudy SCT070 89.1 67.5 49% 92 30.19 0.0
02 12:35 SW 3 7.00 Fair CLR 88.9 70.2 54% 94 30.2 0.0
02 12:15 Calm 7.00 Fair CLR 86.5 71.2 60% 92 30.2 0.0
02 11:55 Calm 7.00 Fair CLR 84.9 71.1 63% 90 30.21 0.0
02 11:35 Calm 7.00 Fair CLR 84.6 72.1 66% 90 30.21 0.0
02 11:15 Calm 7.00 Fair CLR 82.8 72.3 71% 88 30.21 0.0
02 10:55 Calm 7.00 Fair CLR 79 70.9 76% 82 30.21 0.0
02 10:35 Calm 7.00 Fair CLR 77.7 70.5 79% 80 30.21 0.0
02 10:15 Calm 7.00 Fair CLR 77 70.7 81% 79 30.2 0.0
02 09:55 Calm 7.00 Partly Cloudy SCT004 73.8 69.3 86% 30.2 0.0
02 09:35 Calm 7.00 Mostly Cloudy BKN002 73.2 69.4 88% 30.21 0.0
02 09:15 Calm 3.00 Overcast OVC002 69.8 68.9 97% 30.21 0.0
02 08:55 Calm 0.75 Overcast OVC002 69.3 69.3 100% 30.21 0.0
02 08:35 Calm 1.25 Overcast OVC002 69.1 69.1 100% 30.21 0.0
02 08:15 Calm 0.75 Overcast OVC002 68.4 68.4 100% 30.21 0.0
02 07:55 Calm 1.00 Overcast OVC002 68.4 68.4 70.2 68 100% 30.21 0.0
02 07:35 Calm 0.75 Overcast OVC002 68.2 68.2 100% 30.2 0.0
02 07:15 Calm 1.75 Overcast OVC002 68 68 100% 30.19 0.0
02 06:55 Calm 1.25 Overcast OVC002 68.2 68.2 100% 30.18 0.0
02 06:35 Calm 1.50 Overcast OVC002 68.5 68.5 100% 30.18 0.0
02 06:15 Calm 1.75 Overcast OVC002 68.4 68.4 100% 30.18 0.0
02 05:55 Calm 2.00 Overcast OVC002 68.5 68.5 100% 30.17 0.0
02 05:35 Calm 2.50 Overcast OVC002 68.9 68.9 100% 30.17 0.0
02 05:15 Calm 2.50 Overcast OVC002 68.9 68.9 100% 30.17 0.0
02 04:55 Calm 4.00 Overcast OVC002 69.3 69.3 100% 30.17 0.0
02 04:35 Calm 2.50 Overcast OVC002 69.3 69.3 100% 30.17 0.0
02 04:15 Calm 4.00 Overcast OVC002 69.3 69.3 100% 30.17 0.0
02 03:55 Calm 5.00 Overcast OVC002 69.6 69.6 100% 30.17 0.0
02 03:35 Calm 4.00 Overcast OVC002 69.8 69.8 100% 30.16 0.0
02 03:15 Calm 4.00 Overcast OVC002 69.8 69.8 100% 30.16 0.0
02 02:55 Calm 4.00 Overcast OVC002 70 70 100% 30.16 0.0
02 02:35 Calm 5.00 Overcast OVC002 70 70 100% 30.16 0.0
02 02:15 Calm 5.00 Overcast OVC002 70.2 70.2 100% 30.17 0.0
02 01:55 Calm 5.00 Partly Cloudy SCT002 70 70 79.5 70 100% 30.17 0.0
02 01:35 Calm 5.00 Fair CLR 70.2 70.2 100% 30.17 0.0
02 01:15 Calm 5.00 Partly Cloudy SCT002 70.5 70.5 100% 30.16 0.0
02 00:55 Calm 5.00 Fair CLR 70.7 70.7 100% 30.16 0.0
02 00:35 Calm 5.00 Fair CLR 70.7 70.7 100% 30.16 0.0
02 00:15 Calm 5.00 Fair CLR 71.2 71.2 100% 30.16 0.0
01 23:55 Calm 7.00 Fair CLR 71.6 71.4 99% 30.16 0.0
01 23:35 Calm 7.00 Fair CLR 72 71.8 99% 30.16 0.0
01 23:15 Calm 7.00 Fair CLR 72.5 72.1 99% 30.16 0.0
01 22:55 Calm 7.00 Fair CLR 72.7 72.5 99% 30.16 0.0
01 22:35 Calm 5.00 Fair CLR 73 72.7 99% 30.16 0.0
01 22:15 Calm 7.00 Fair CLR 73.4 72.7 98% 30.15 0.0
01 21:55 Calm 7.00 Fair CLR 73.9 72.7 96% 30.15 0.0
01 21:35 Calm 7.00 Fair CLR 74.3 72.9 95% 30.15 0.0
01 21:15 Calm 7.00 Fair CLR 75.2 72.5 91% 74 30.14 0.0
01 20:55 Calm 7.00 Fair CLR 76.1 72.3 88% 76 30.13 0.0
01 20:35 Calm 7.00 Fair CLR 77.4 71.8 83% 79 30.13 0.0
01 20:15 Calm 7.00 Fair CLR 78.6 72.5 82% 82 30.13 0.0
01 19:55 Calm 7.00 Fair CLR 80.1 72 92.5 80.1 76% 84 30.13 0.0
01 19:35 Calm 7.00 Fair CLR 83.3 71.6 68% 88 30.13 0.0
01 19:15 Calm 10.00 Fair CLR 85.6 72.5 65% 92 30.13 0.0
01 18:55 Calm 7.00 Fair CLR 86.5 72.7 63% 94 30.13 0.0
01 18:35 Calm 10.00 Fair CLR 88 70.5 56% 93 30.13 0.0
01 18:15 Calm 10.00 Fair CLR 89.1 69.8 53% 94 30.13 0.0
01 17:55 Calm 5.00 Fair CLR 90.1 68.7 49% 95 30.13 0.0
01 17:35 W 5 10.00 Mostly Cloudy SCT055 BKN070 90.7 66.9 46% 94 30.14 0.0
01 17:15 SW 5 10.00 Overcast BKN055 OVC070 92.1 67.5 44% 96 30.14 0.0
01 16:55 SW 3 7.00 Mostly Cloudy SCT060 BKN080 91.8 66.4 43% 95 30.14 0.0
01 16:35 W 6 10.00 Partly Cloudy SCT060 SCT070 91.4 64.9 42% 93 30.14 0.0
01 16:15 W 7 7.00 Mostly Cloudy SCT060 BKN070 91.8 63.9 40% 93 30.14 0.0
01 15:55 W 6 10.00 Mostly Cloudy BKN060 BKN070 91.6 64.2 40% 93 30.14 0.0
01 15:35 W 6 10.00 Partly Cloudy SCT060 91.4 64.2 41% 93 30.15 0.0
01 15:15 W 6 10.00 Partly Cloudy SCT050 91.8 65.8 42% 94 30.16 0.0
01 14:55 W 3 10.00 Partly Cloudy SCT050 SCT075 90.5 64.4 42% 92 30.16 0.0
01 14:35 W 5 10.00 Fair CLR 88.5 66.4 48% 91 30.17 0.0
01 14:15 W 3 7.00 Partly Cloudy SCT050 SCT060 SCT070 90.1 67.5 47% 94 30.18 0.0
01 13:55 Calm 7.00 Partly Cloudy SCT042 SCT060 89.6 69.4 89.8 68.9 52% 95 30.18 0.0
01 13:35 NW 3 7.00 Partly Cloudy SCT042 SCT050 89.1 68.9 51% 93 30.18 0.0
01 13:15 SW 5 10.00 Partly Cloudy SCT042 SCT048 SCT050 88.5 69.6 54% 93 30.19 0.0
01 12:55 SW 5 7.00 Partly Cloudy SCT042 87.8 70.9 57% 94 30.19 0.0
01 12:35 S 3 7.00 Fair CLR 86.2 70.7 60% 91 30.2 0.0
01 12:15 Calm 7.00 Fair CLR 85.5 71.4 63% 91 30.21 0.0
01 11:55 Calm 7.00 Fair CLR 84.4 71.1 64% 89 30.21 0.0
01 11:35 Calm 7.00 Fair CLR 82.2 70.3 67% 86 30.21 0.0
01 11:15 Calm 7.00 Fair CLR 81.3 70.5 70% 85 30.22 0.0
01 10:55 Calm 7.00 Fair CLR 79.3 71.8 78% 83 30.22 0.0
01 10:35 Calm 7.00 Fair CLR 76.5 70.7 82% 78 30.22 0.0
01 10:15 Calm 7.00 Partly Cloudy SCT003 74.3 69.6 85% 30.22 0.0
Date Time (edt) Wind (mph) Vis. (mi.) Weather Sky Cond. Air Dwpt Max. Min. Relative Humidity Wind Chill (°F) Heat Index (°F) altimeter (in) sea level (mb) 1 hr 3 hr 6 hr
6 hour
Temperature (ºF) Pressure Precipitation (in)